Terminal Aerodrome Forecast
Issued by NWS

Home | Current Version | Previous Version | Text Only | Print | Product List | Glossary On
Versions: 1 2 3 4 5 6 7 8 9 10 11 12 13 14 15 16 17
390
FTUS41 KPBZ 251120
TAFBVI
TAF
KBVI 251120Z 2512/2612 21010KT P6SM -SHRA SCT015 OVC035
      TEMPO 2512/2513 BKN015
     FM251300 26012G22KT 5SM -SHRA OVC020
     FM251500 27015G25KT P6SM VCSH OVC020
     FM251800 28015G25KT P6SM BKN035=

USA.gov is the U.S. government's official web portal to all federal, state and local government web resources and services.